sensor_id;sensor_type;location;lat;lon;timestamp;pressure;altitude;pressure_sealevel;temperature;humidity
49583;BME280;36329;48.816;44.624;2023-04-27T00:01:57;100957;;;13.4;77.5
49583;BME280;36329;48.816;44.624;2023-04-27T00:04:59;100960;;;13.6;77.2
49583;BME280;36329;48.816;44.624;2023-04-27T00:08:01;100960;;;13.5;77.2
49583;BME280;36329;48.816;44.624;2023-04-27T00:11:03;100953;;;13.4;77.1
49583;BME280;36329;48.816;44.624;2023-04-27T00:14:05;100954;;;13.3;77.2
49583;BME280;36329;48.816;44.624;2023-04-27T00:17:08;100957;;;13.3;77.2
49583;BME280;36329;48.816;44.624;2023-04-27T00:20:10;100958;;;13.2;78.1
49583;BME280;36329;48.816;44.624;2023-04-27T00:23:12;100963;;;13.2;78.2
49583;BME280;36329;48.816;44.624;2023-04-27T00:26:14;100960;;;13.3;77.6
49583;BME280;36329;48.816;44.624;2023-04-27T00:29:16;100961;;;13.2;78.2
49583;BME280;36329;48.816;44.624;2023-04-27T00:32:18;100963;;;13.3;77.4
49583;BME280;36329;48.816;44.624;2023-04-27T00:35:20;100959;;;13.1;78.1
49583;BME280;36329;48.816;44.624;2023-04-27T00:38:22;100960;;;13.2;77.9
49583;BME280;36329;48.816;44.624;2023-04-27T00:41:24;100952;;;13.2;77.2
49583;BME280;36329;48.816;44.624;2023-04-27T00:44:27;100945;;;13.2;76.8
49583;BME280;36329;48.816;44.624;2023-04-27T00:47:29;100947;;;12.9;78.1
49583;BME280;36329;48.816;44.624;2023-04-27T00:50:32;100951;;;12.9;78.1
49583;BME280;36329;48.816;44.624;2023-04-27T00:53:35;100950;;;13.1;77.7
49583;BME280;36329;48.816;44.624;2023-04-27T00:56:37;100948;;;13;77.4
49583;BME280;36329;48.816;44.624;2023-04-27T00:59:39;100949;;;13;77.2
49583;BME280;36329;48.816;44.624;2023-04-27T01:02:42;100958;;;12.9;77.3
49583;BME280;36329;48.816;44.624;2023-04-27T01:05:44;100956;;;13;76.9
49583;BME280;36329;48.816;44.624;2023-04-27T01:08:46;100961;;;13.1;76.6
49583;BME280;36329;48.816;44.624;2023-04-27T01:11:48;100971;;;13.1;76.6
49583;BME280;36329;48.816;44.624;2023-04-27T01:14:50;100973;;;13.2;76.6
49583;BME280;36329;48.816;44.624;2023-04-27T01:17:56;100967;;;13.1;77.2
49583;BME280;36329;48.816;44.624;2023-04-27T01:20:59;100963;;;13;78
49583;BME280;36329;48.816;44.624;2023-04-27T01:24:02;100964;;;12.9;77.8
49583;BME280;36329;48.816;44.624;2023-04-27T01:27:04;100962;;;12.9;77.8
49583;BME280;36329;48.816;44.624;2023-04-27T01:30:07;100960;;;12.7;77.7
49583;BME280;36329;48.816;44.624;2023-04-27T01:33:08;100955;;;12.6;78.1
49583;BME280;36329;48.816;44.624;2023-04-27T01:36:10;100955;;;12.7;78
49583;BME280;36329;48.816;44.624;2023-04-27T01:39:12;100960;;;12.7;78
49583;BME280;36329;48.816;44.624;2023-04-27T01:42:14;100958;;;12.5;78.2
49583;BME280;36329;48.816;44.624;2023-04-27T01:45:17;100962;;;12.5;78.8
49583;BME280;36329;48.816;44.624;2023-04-27T01:48:19;100957;;;12.6;79.3
49583;BME280;36329;48.816;44.624;2023-04-27T01:51:22;100959;;;12.6;79
49583;BME280;36329;48.816;44.624;2023-04-27T01:54:24;100962;;;12.6;79.4
49583;BME280;36329;48.816;44.624;2023-04-27T01:57:26;100963;;;12.5;79.5
49583;BME280;36329;48.816;44.624;2023-04-27T02:00:27;100959;;;12.6;79.2
49583;BME280;36329;48.816;44.624;2023-04-27T02:03:29;100957;;;12.7;78.3
49583;BME280;36329;48.816;44.624;2023-04-27T02:06:32;100956;;;12.6;79.2
49583;BME280;36329;48.816;44.624;2023-04-27T02:09:34;100956;;;12.5;80
49583;BME280;36329;48.816;44.624;2023-04-27T02:12:36;100956;;;12.4;80.9
49583;BME280;36329;48.816;44.624;2023-04-27T02:15:38;100954;;;12.6;80.5
49583;BME280;36329;48.816;44.624;2023-04-27T02:18:40;100955;;;12.6;80.1
49583;BME280;36329;48.816;44.624;2023-04-27T02:21:43;100961;;;12.8;79.2
49583;BME280;36329;48.816;44.624;2023-04-27T02:24:45;100968;;;12.8;78.4
49583;BME280;36329;48.816;44.624;2023-04-27T02:27:47;100969;;;12.9;78.8
49583;BME280;36329;48.816;44.624;2023-04-27T02:30:49;100973;;;12.8;78.6
49583;BME280;36329;48.816;44.624;2023-04-27T02:33:51;100978;;;12.9;78.2
49583;BME280;36329;48.816;44.624;2023-04-27T02:36:53;100989;;;13;78.7
49583;BME280;36329;48.816;44.624;2023-04-27T02:39:55;100985;;;13;78.6
49583;BME280;36329;48.816;44.624;2023-04-27T02:42:58;100988;;;13;78.7
49583;BME280;36329;48.816;44.624;2023-04-27T02:46:01;100994;;;13.1;79.1
49583;BME280;36329;48.816;44.624;2023-04-27T02:49:03;100994;;;13.1;79.6
49583;BME280;36329;48.816;44.624;2023-04-27T02:52:05;101000;;;13.1;79.1
49583;BME280;36329;48.816;44.624;2023-04-27T02:55:08;101005;;;13.2;79.1
49583;BME280;36329;48.816;44.624;2023-04-27T02:58:10;101011;;;13.3;78.9
49583;BME280;36329;48.816;44.624;2023-04-27T03:01:12;101009;;;13.4;78.4
49583;BME280;36329;48.816;44.624;2023-04-27T03:04:14;101013;;;13.5;77.8
49583;BME280;36329;48.816;44.624;2023-04-27T03:07:16;101011;;;13.6;77.6
49583;BME280;36329;48.816;44.624;2023-04-27T03:10:18;101010;;;13.6;77.7
49583;BME280;36329;48.816;44.624;2023-04-27T03:13:20;101010;;;13.7;77.3
49583;BME280;36329;48.816;44.624;2023-04-27T03:16:22;101010;;;13.8;76.9
49583;BME280;36329;48.816;44.624;2023-04-27T03:19:24;101009;;;13.9;77.3
49583;BME280;36329;48.816;44.624;2023-04-27T03:22:26;101014;;;13.9;77.3
49583;BME280;36329;48.816;44.624;2023-04-27T03:25:28;101009;;;14;77.6
49583;BME280;36329;48.816;44.624;2023-04-27T03:28:30;101018;;;14.1;77.7
49583;BME280;36329;48.816;44.624;2023-04-27T03:31:32;101015;;;14.2;78.3
49583;BME280;36329;48.816;44.624;2023-04-27T03:34:34;101014;;;14.3;78.1
49583;BME280;36329;48.816;44.624;2023-04-27T03:37:36;101019;;;14.4;77.9
49583;BME280;36329;48.816;44.624;2023-04-27T03:40:38;101022;;;14.4;78.6
49583;BME280;36329;48.816;44.624;2023-04-27T03:43:40;101021;;;14.4;79.3
49583;BME280;36329;48.816;44.624;2023-04-27T03:46:42;101032;;;14.5;78.4
49583;BME280;36329;48.816;44.624;2023-04-27T03:49:44;101025;;;14.7;77.6
49583;BME280;36329;48.816;44.624;2023-04-27T03:52:46;101023;;;14.8;77.4
49583;BME280;36329;48.816;44.624;2023-04-27T03:55:48;101022;;;14.9;77
49583;BME280;36329;48.816;44.624;2023-04-27T03:58:50;101028;;;15.1;76.6
49583;BME280;36329;48.816;44.624;2023-04-27T04:01:52;101026;;;15.2;76.5
49583;BME280;36329;48.816;44.624;2023-04-27T04:04:54;101028;;;15.3;77
49583;BME280;36329;48.816;44.624;2023-04-27T04:07:56;101024;;;15.4;76.2
49583;BME280;36329;48.816;44.624;2023-04-27T04:10:59;101023;;;15.6;76.2
49583;BME280;36329;48.816;44.624;2023-04-27T04:14:01;101029;;;15.7;75
49583;BME280;36329;48.816;44.624;2023-04-27T04:17:04;101023;;;16;73.1
49583;BME280;36329;48.816;44.624;2023-04-27T04:20:06;101022;;;16.1;72.9
49583;BME280;36329;48.816;44.624;2023-04-27T04:23:08;101019;;;16.2;71.1
49583;BME280;36329;48.816;44.624;2023-04-27T04:26:11;101016;;;16.4;71.3
49583;BME280;36329;48.816;44.624;2023-04-27T04:29:13;101019;;;16.5;71.2
49583;BME280;36329;48.816;44.624;2023-04-27T04:32:15;101021;;;16.5;70.3
49583;BME280;36329;48.816;44.624;2023-04-27T04:35:17;101022;;;16.7;70.8
49583;BME280;36329;48.816;44.624;2023-04-27T04:38:19;101019;;;16.9;68.9
49583;BME280;36329;48.816;44.624;2023-04-27T04:41:21;101026;;;16.8;67.4
49583;BME280;36329;48.816;44.624;2023-04-27T04:44:23;101017;;;16.9;67.6
49583;BME280;36329;48.816;44.624;2023-04-27T04:47:26;101020;;;17.2;66.4
49583;BME280;36329;48.816;44.624;2023-04-27T04:50:28;101015;;;17.2;65.2
49583;BME280;36329;48.816;44.624;2023-04-27T04:53:30;101017;;;17.2;65
49583;BME280;36329;48.816;44.624;2023-04-27T04:56:33;101016;;;17.4;65.2
49583;BME280;36329;48.816;44.624;2023-04-27T04:59:35;101020;;;17.5;63.8
49583;BME280;36329;48.816;44.624;2023-04-27T05:02:37;101019;;;17.4;64
49583;BME280;36329;48.816;44.624;2023-04-27T05:05:39;101021;;;17.7;62.6
49583;BME280;36329;48.816;44.624;2023-04-27T05:08:41;101018;;;17.9;62.3
49583;BME280;36329;48.816;44.624;2023-04-27T05:11:43;101018;;;18;60.8
49583;BME280;36329;48.816;44.624;2023-04-27T05:14:45;101016;;;18.1;60.5
49583;BME280;36329;48.816;44.624;2023-04-27T05:17:48;101019;;;18;59.5
49583;BME280;36329;48.816;44.624;2023-04-27T05:20:50;101017;;;18.1;59
49583;BME280;36329;48.816;44.624;2023-04-27T05:23:52;101023;;;18.4;59.2
49583;BME280;36329;48.816;44.624;2023-04-27T05:26:55;101029;;;18.3;59.7
49583;BME280;36329;48.816;44.624;2023-04-27T05:29:56;101028;;;18.3;59.6
49583;BME280;36329;48.816;44.624;2023-04-27T05:32:58;101032;;;18.5;59.7
49583;BME280;36329;48.816;44.624;2023-04-27T05:36:01;101031;;;18.7;59
49583;BME280;36329;48.816;44.624;2023-04-27T05:39:03;101027;;;18.7;59.1
49583;BME280;36329;48.816;44.624;2023-04-27T05:42:06;101032;;;18.8;58.6
49583;BME280;36329;48.816;44.624;2023-04-27T05:45:08;101025;;;19;58.2
49583;BME280;36329;48.816;44.624;2023-04-27T05:48:10;101030;;;19.1;58.5
49583;BME280;36329;48.816;44.624;2023-04-27T05:51:12;101027;;;19.2;59.8
49583;BME280;36329;48.816;44.624;2023-04-27T05:54:14;101032;;;19.1;58.6
49583;BME280;36329;48.816;44.624;2023-04-27T05:57:16;101027;;;19.5;58.1
49583;BME280;36329;48.816;44.624;2023-04-27T06:00:18;101028;;;19.8;57.3
49583;BME280;36329;48.816;44.624;2023-04-27T06:03:20;101027;;;19.4;57.5
49583;BME280;36329;48.816;44.624;2023-04-27T06:06:22;101019;;;19.6;56.9
49583;BME280;36329;48.816;44.624;2023-04-27T06:09:24;101020;;;19.9;56.3
49583;BME280;36329;48.816;44.624;2023-04-27T06:12:26;101023;;;20.5;55.1
49583;BME280;36329;48.816;44.624;2023-04-27T06:15:28;101026;;;20.6;55.1
49583;BME280;36329;48.816;44.624;2023-04-27T06:18:30;101028;;;20.9;54.6
49583;BME280;36329;48.816;44.624;2023-04-27T06:21:33;101029;;;21.3;54.9
49583;BME280;36329;48.816;44.624;2023-04-27T06:24:35;101027;;;21.2;52.8
49583;BME280;36329;48.816;44.624;2023-04-27T06:27:38;101029;;;21.4;54.1
49583;BME280;36329;48.816;44.624;2023-04-27T06:30:41;101031;;;21.9;50.8
49583;BME280;36329;48.816;44.624;2023-04-27T06:33:43;101030;;;21.7;50.7
49583;BME280;36329;48.816;44.624;2023-04-27T06:36:45;101028;;;21.9;53
49583;BME280;36329;48.816;44.624;2023-04-27T06:39:47;101029;;;21.9;50.9
49583;BME280;36329;48.816;44.624;2023-04-27T06:42:49;101029;;;22.1;50.4
49583;BME280;36329;48.816;44.624;2023-04-27T06:45:51;101030;;;21.5;51.4
49583;BME280;36329;48.816;44.624;2023-04-27T06:48:53;101026;;;21.2;51.9
49583;BME280;36329;48.816;44.624;2023-04-27T06:51:56;101030;;;21.5;51.9
49583;BME280;36329;48.816;44.624;2023-04-27T06:54:58;101032;;;22.3;48.6
49583;BME280;36329;48.816;44.624;2023-04-27T06:58:01;101026;;;21.9;48.9
49583;BME280;36329;48.816;44.624;2023-04-27T07:01:03;101035;;;22.8;47.3
49583;BME280;36329;48.816;44.624;2023-04-27T07:04:05;101037;;;23;45.1
49583;BME280;36329;48.816;44.624;2023-04-27T07:07:07;101029;;;23.2;45.8
49583;BME280;36329;48.816;44.624;2023-04-27T07:10:10;101030;;;23.1;46
49583;BME280;36329;48.816;44.624;2023-04-27T07:13:12;101021;;;23.9;45.2
49583;BME280;36329;48.816;44.624;2023-04-27T07:16:14;101020;;;24.5;44.8
49583;BME280;36329;48.816;44.624;2023-04-27T07:19:16;101024;;;25.1;42.7
49583;BME280;36329;48.816;44.624;2023-04-27T07:22:18;101024;;;25.1;41.4
49583;BME280;36329;48.816;44.624;2023-04-27T07:25:20;101026;;;25.3;41.2
49583;BME280;36329;48.816;44.624;2023-04-27T07:28:22;101023;;;25.6;43.1
49583;BME280;36329;48.816;44.624;2023-04-27T07:31:25;101021;;;25.5;41.2
49583;BME280;36329;48.816;44.624;2023-04-27T07:34:27;101021;;;25.2;40.2
49583;BME280;36329;48.816;44.624;2023-04-27T07:37:29;101016;;;25;40.8
49583;BME280;36329;48.816;44.624;2023-04-27T07:40:31;101016;;;25.3;40.5
49583;BME280;36329;48.816;44.624;2023-04-27T07:43:33;101014;;;25.2;39.3
49583;BME280;36329;48.816;44.624;2023-04-27T07:46:35;101011;;;25.7;41.8
49583;BME280;36329;48.816;44.624;2023-04-27T07:49:37;101012;;;26.1;41.3
49583;BME280;36329;48.816;44.624;2023-04-27T07:52:39;101004;;;26.3;37.3
49583;BME280;36329;48.816;44.624;2023-04-27T07:55:42;101007;;;26.1;36.1
49583;BME280;36329;48.816;44.624;2023-04-27T07:58:44;101009;;;25.9;39.6
49583;BME280;36329;48.816;44.624;2023-04-27T08:01:46;100998;;;26.2;37.8
49583;BME280;36329;48.816;44.624;2023-04-27T08:04:48;101000;;;26.5;37.2
49583;BME280;36329;48.816;44.624;2023-04-27T08:07:50;100997;;;26.6;35.5
49583;BME280;36329;48.816;44.624;2023-04-27T08:10:52;100995;;;26.4;34.6
49583;BME280;36329;48.816;44.624;2023-04-27T08:13:54;100991;;;26;34.2
49583;BME280;36329;48.816;44.624;2023-04-27T08:16:57;100993;;;26.6;35.3
49583;BME280;36329;48.816;44.624;2023-04-27T08:19:59;100983;;;26.3;34.7
49583;BME280;36329;48.816;44.624;2023-04-27T08:23:01;100980;;;26.7;34.2
49583;BME280;36329;48.816;44.624;2023-04-27T08:26:03;100976;;;25.9;33.9
49583;BME280;36329;48.816;44.624;2023-04-27T08:29:06;100967;;;24.6;36
49583;BME280;36329;48.816;44.624;2023-04-27T08:32:09;100963;;;25.3;34.9
49583;BME280;36329;48.816;44.624;2023-04-27T08:35:11;100970;;;25.7;35.3
49583;BME280;36329;48.816;44.624;2023-04-27T08:38:13;100969;;;26.5;33.6
49583;BME280;36329;48.816;44.624;2023-04-27T08:41:17;100966;;;26.8;33.6
49583;BME280;36329;48.816;44.624;2023-04-27T08:44:19;100958;;;26.4;34.4
49583;BME280;36329;48.816;44.624;2023-04-27T08:47:21;100956;;;27;34.3
49583;BME280;36329;48.816;44.624;2023-04-27T08:50:23;100955;;;27.5;33.3
49583;BME280;36329;48.816;44.624;2023-04-27T08:53:25;100952;;;27.8;32.7
49583;BME280;36329;48.816;44.624;2023-04-27T08:56:28;100950;;;26;34.9
49583;BME280;36329;48.816;44.624;2023-04-27T08:59:31;100951;;;25.2;36.2
49583;BME280;36329;48.816;44.624;2023-04-27T09:02:33;100942;;;26.1;34.9
49583;BME280;36329;48.816;44.624;2023-04-27T09:05:35;100942;;;26.6;34.3
49583;BME280;36329;48.816;44.624;2023-04-27T09:08:40;100942;;;26.8;33.6
49583;BME280;36329;48.816;44.624;2023-04-27T09:11:43;100931;;;27.4;32.7
49583;BME280;36329;48.816;44.624;2023-04-27T09:14:55;100922;;;27.7;31.4
49583;BME280;36329;48.816;44.624;2023-04-27T09:17:58;100927;;;27.2;32.1
49583;BME280;36329;48.816;44.624;2023-04-27T09:21:00;100924;;;27.3;31.6
49583;BME280;36329;48.816;44.624;2023-04-27T09:24:09;100923;;;27.5;31.2
49583;BME280;36329;48.816;44.624;2023-04-27T09:27:19;100915;;;27.6;30.7
49583;BME280;36329;48.816;44.624;2023-04-27T09:30:22;100916;;;27.5;30.4
49583;BME280;36329;48.816;44.624;2023-04-27T09:33:26;100921;;;27.4;29.1
49583;BME280;36329;48.816;44.624;2023-04-27T09:36:29;100915;;;26.6;30.5
49583;BME280;36329;48.816;44.624;2023-04-27T09:39:31;100916;;;27;30.3
49583;BME280;36329;48.816;44.624;2023-04-27T09:42:34;100923;;;27.3;31.3
49583;BME280;36329;48.816;44.624;2023-04-27T09:45:36;100924;;;27.3;29.7
49583;BME280;36329;48.816;44.624;2023-04-27T09:48:39;100921;;;27.5;29.8
49583;BME280;36329;48.816;44.624;2023-04-27T09:51:41;100926;;;26.9;29.8
49583;BME280;36329;48.816;44.624;2023-04-27T09:54:44;100927;;;26.7;29.8
49583;BME280;36329;48.816;44.624;2023-04-27T09:57:52;100918;;;26;31.1
49583;BME280;36329;48.816;44.624;2023-04-27T10:01:04;100919;;;25.9;30.8
49583;BME280;36329;48.816;44.624;2023-04-27T10:04:19;100919;;;25.9;31.7
49583;BME280;36329;48.816;44.624;2023-04-27T10:07:25;100912;;;25.9;30.5
49583;BME280;36329;48.816;44.624;2023-04-27T10:10:27;100909;;;25.7;30.9
49583;BME280;36329;48.816;44.624;2023-04-27T10:13:30;100907;;;26.2;30.2
49583;BME280;36329;48.816;44.624;2023-04-27T10:16:42;100906;;;26;30.1
49583;BME280;36329;48.816;44.624;2023-04-27T10:19:54;100896;;;26;29.8
49583;BME280;36329;48.816;44.624;2023-04-27T10:22:57;100896;;;25.7;29.5
49583;BME280;36329;48.816;44.624;2023-04-27T10:26:06;100894;;;25.8;30.9
49583;BME280;36329;48.816;44.624;2023-04-27T10:29:08;100890;;;26.1;29.4
49583;BME280;36329;48.816;44.624;2023-04-27T10:32:11;100889;;;26.5;29.9
49583;BME280;36329;48.816;44.624;2023-04-27T10:35:14;100886;;;26.2;30.4
49583;BME280;36329;48.816;44.624;2023-04-27T10:38:18;100884;;;26.2;29.5
49583;BME280;36329;48.816;44.624;2023-04-27T10:41:20;100884;;;26.6;29.2
49583;BME280;36329;48.816;44.624;2023-04-27T10:44:25;100878;;;26.4;28.7
49583;BME280;36329;48.816;44.624;2023-04-27T10:47:36;100881;;;26.1;29.1
49583;BME280;36329;48.816;44.624;2023-04-27T10:50:39;100882;;;26.4;28.7
49583;BME280;36329;48.816;44.624;2023-04-27T10:53:42;100882;;;26.4;29.1
49583;BME280;36329;48.816;44.624;2023-04-27T10:56:44;100874;;;26.1;29.4
49583;BME280;36329;48.816;44.624;2023-04-27T10:59:48;100869;;;25.1;31.1
49583;BME280;36329;48.816;44.624;2023-04-27T11:02:51;100870;;;25.1;32.8
49583;BME280;36329;48.816;44.624;2023-04-27T11:06:00;100862;;;25.3;32.4
49583;BME280;36329;48.816;44.624;2023-04-27T11:09:03;100861;;;25.1;33.6
49583;BME280;36329;48.816;44.624;2023-04-27T11:12:05;100863;;;25.1;33.6
49583;BME280;36329;48.816;44.624;2023-04-27T11:15:08;100857;;;24.7;34.4
49583;BME280;36329;48.816;44.624;2023-04-27T11:18:10;100853;;;24.9;34.5
49583;BME280;36329;48.816;44.624;2023-04-27T11:21:14;100851;;;24.9;34.7
49583;BME280;36329;48.816;44.624;2023-04-27T11:24:16;100849;;;25;33.6
49583;BME280;36329;48.816;44.624;2023-04-27T11:27:18;100849;;;24.9;33.7
49583;BME280;36329;48.816;44.624;2023-04-27T11:30:22;100847;;;24.8;33.2
49583;BME280;36329;48.816;44.624;2023-04-27T11:33:24;100854;;;24.8;34
49583;BME280;36329;48.816;44.624;2023-04-27T11:36:27;100843;;;24.5;34.3
49583;BME280;36329;48.816;44.624;2023-04-27T11:39:32;100837;;;24.5;34.4
49583;BME280;36329;48.816;44.624;2023-04-27T11:42:35;100834;;;24.5;33.9
49583;BME280;36329;48.816;44.624;2023-04-27T11:45:40;100834;;;24.5;32.7
49583;BME280;36329;48.816;44.624;2023-04-27T11:48:43;100840;;;24.1;32.4
49583;BME280;36329;48.816;44.624;2023-04-27T11:51:45;100829;;;23.9;34
49583;BME280;36329;48.816;44.624;2023-04-27T11:54:48;100834;;;23.8;34.4
49583;BME280;36329;48.816;44.624;2023-04-27T11:57:56;100836;;;23.5;33.6
49583;BME280;36329;48.816;44.624;2023-04-27T12:00:58;100833;;;23.7;33.4
49583;BME280;36329;48.816;44.624;2023-04-27T12:04:01;100828;;;23.6;31.6
49583;BME280;36329;48.816;44.624;2023-04-27T12:07:03;100833;;;23.4;32.2
49583;BME280;36329;48.816;44.624;2023-04-27T12:10:06;100834;;;23.5;33
49583;BME280;36329;48.816;44.624;2023-04-27T12:13:09;100829;;;23.4;34.1
49583;BME280;36329;48.816;44.624;2023-04-27T12:16:11;100822;;;23.5;31.6
49583;BME280;36329;48.816;44.624;2023-04-27T12:19:13;100819;;;23.4;31.3
49583;BME280;36329;48.816;44.624;2023-04-27T12:22:15;100816;;;23.4;30.8
49583;BME280;36329;48.816;44.624;2023-04-27T12:25:17;100818;;;23.5;32.5
49583;BME280;36329;48.816;44.624;2023-04-27T12:28:21;100817;;;23.4;32.1
49583;BME280;36329;48.816;44.624;2023-04-27T12:31:23;100811;;;23.3;32.2
49583;BME280;36329;48.816;44.624;2023-04-27T12:34:25;100813;;;23.2;32.6
49583;BME280;36329;48.816;44.624;2023-04-27T12:37:27;100802;;;23.3;31.2
49583;BME280;36329;48.816;44.624;2023-04-27T12:40:29;100807;;;23.4;31.7
49583;BME280;36329;48.816;44.624;2023-04-27T12:43:31;100813;;;23.2;32.1
49583;BME280;36329;48.816;44.624;2023-04-27T12:46:33;100807;;;23.2;31.6
49583;BME280;36329;48.816;44.624;2023-04-27T12:49:35;100811;;;23;31.2
49583;BME280;36329;48.816;44.624;2023-04-27T12:52:37;100813;;;22.9;31.1
49583;BME280;36329;48.816;44.624;2023-04-27T12:55:39;100807;;;22.9;31.3
49583;BME280;36329;48.816;44.624;2023-04-27T12:58:41;100812;;;22.9;31.2
49583;BME280;36329;48.816;44.624;2023-04-27T13:01:44;100806;;;22.9;31.4
49583;BME280;36329;48.816;44.624;2023-04-27T13:04:46;100810;;;22.8;31.9
49583;BME280;36329;48.816;44.624;2023-04-27T13:07:49;100815;;;22.9;32
49583;BME280;36329;48.816;44.624;2023-04-27T13:10:51;100817;;;23.1;32.7
49583;BME280;36329;48.816;44.624;2023-04-27T13:13:53;100809;;;23.1;32.6
49583;BME280;36329;48.816;44.624;2023-04-27T13:16:56;100813;;;22.9;31.8
49583;BME280;36329;48.816;44.624;2023-04-27T13:19:58;100805;;;22.5;31.9
49583;BME280;36329;48.816;44.624;2023-04-27T13:23:00;100805;;;22.3;31.9
49583;BME280;36329;48.816;44.624;2023-04-27T13:26:03;100798;;;22.3;32
49583;BME280;36329;48.816;44.624;2023-04-27T13:29:05;100801;;;22.5;32.8
49583;BME280;36329;48.816;44.624;2023-04-27T13:32:07;100802;;;22.4;32.4
49583;BME280;36329;48.816;44.624;2023-04-27T13:35:09;100802;;;22.2;33
49583;BME280;36329;48.816;44.624;2023-04-27T13:38:11;100794;;;22.2;32.7
49583;BME280;36329;48.816;44.624;2023-04-27T13:41:13;100793;;;22.3;32.9
49583;BME280;36329;48.816;44.624;2023-04-27T13:44:15;100786;;;22.5;32.4
49583;BME280;36329;48.816;44.624;2023-04-27T13:47:17;100787;;;22.6;31.1
49583;BME280;36329;48.816;44.624;2023-04-27T13:50:19;100790;;;22.3;31.2
49583;BME280;36329;48.816;44.624;2023-04-27T13:53:21;100784;;;22.2;31.8
49583;BME280;36329;48.816;44.624;2023-04-27T13:56:24;100785;;;22;32.4
49583;BME280;36329;48.816;44.624;2023-04-27T13:59:26;100782;;;22.1;32.5
49583;BME280;36329;48.816;44.624;2023-04-27T14:02:28;100781;;;22.1;32.1
49583;BME280;36329;48.816;44.624;2023-04-27T14:05:31;100783;;;22.1;32.3
49583;BME280;36329;48.816;44.624;2023-04-27T14:08:33;100776;;;22;32.5
49583;BME280;36329;48.816;44.624;2023-04-27T14:11:35;100776;;;22;33
49583;BME280;36329;48.816;44.624;2023-04-27T14:14:37;100779;;;21.9;33.2
49583;BME280;36329;48.816;44.624;2023-04-27T14:17:39;100779;;;21.8;33.5
49583;BME280;36329;48.816;44.624;2023-04-27T14:20:43;100777;;;21.8;33.7
49583;BME280;36329;48.816;44.624;2023-04-27T14:23:45;100783;;;21.8;33.4
49583;BME280;36329;48.816;44.624;2023-04-27T14:26:47;100775;;;21.6;33.7
49583;BME280;36329;48.816;44.624;2023-04-27T14:29:50;100771;;;21.9;33.7
49583;BME280;36329;48.816;44.624;2023-04-27T14:32:52;100768;;;21.8;33.3
49583;BME280;36329;48.816;44.624;2023-04-27T14:35:54;100764;;;21.8;33.9
49583;BME280;36329;48.816;44.624;2023-04-27T14:38:56;100766;;;21.8;33.6
49583;BME280;36329;48.816;44.624;2023-04-27T14:41:57;100764;;;21.8;33.2
49583;BME280;36329;48.816;44.624;2023-04-27T14:44:59;100766;;;21.8;33.3
49583;BME280;36329;48.816;44.624;2023-04-27T14:48:01;100765;;;21.7;33.6
49583;BME280;36329;48.816;44.624;2023-04-27T14:51:04;100761;;;21.7;34
49583;BME280;36329;48.816;44.624;2023-04-27T14:54:06;100768;;;21.7;34
49583;BME280;36329;48.816;44.624;2023-04-27T14:57:08;100770;;;21.5;34.3
49583;BME280;36329;48.816;44.624;2023-04-27T15:00:11;100766;;;21.5;34.3
49583;BME280;36329;48.816;44.624;2023-04-27T15:03:13;100766;;;21.7;34.5
49583;BME280;36329;48.816;44.624;2023-04-27T15:06:15;100770;;;21.8;35.2
49583;BME280;36329;48.816;44.624;2023-04-27T15:09:17;100771;;;21.9;34.2
49583;BME280;36329;48.816;44.624;2023-04-27T15:12:19;100776;;;21.8;34.5
49583;BME280;36329;48.816;44.624;2023-04-27T15:15:21;100776;;;21.6;35
49583;BME280;36329;48.816;44.624;2023-04-27T15:18:24;100775;;;21.4;35.5
49583;BME280;36329;48.816;44.624;2023-04-27T15:21:26;100773;;;21.4;35.2
49583;BME280;36329;48.816;44.624;2023-04-27T15:24:28;100777;;;21.4;35.4
49583;BME280;36329;48.816;44.624;2023-04-27T15:27:30;100771;;;21.4;35.4
49583;BME280;36329;48.816;44.624;2023-04-27T15:30:33;100779;;;21.3;35.6
49583;BME280;36329;48.816;44.624;2023-04-27T15:33:35;100782;;;21.4;36.6
49583;BME280;36329;48.816;44.624;2023-04-27T15:36:37;100786;;;21.4;35.8
49583;BME280;36329;48.816;44.624;2023-04-27T15:39:39;100783;;;21.2;36.1
49583;BME280;36329;48.816;44.624;2023-04-27T15:42:41;100785;;;21.1;36.1
49583;BME280;36329;48.816;44.624;2023-04-27T15:45:43;100784;;;21.1;36.3
49583;BME280;36329;48.816;44.624;2023-04-27T15:48:44;100787;;;21.2;36.4
49583;BME280;36329;48.816;44.624;2023-04-27T15:51:46;100791;;;21.2;37
49583;BME280;36329;48.816;44.624;2023-04-27T15:54:48;100790;;;21.1;36.7
49583;BME280;36329;48.816;44.624;2023-04-27T15:57:50;100791;;;21;37.8
49583;BME280;36329;48.816;44.624;2023-04-27T16:00:52;100787;;;21.1;37.6
49583;BME280;36329;48.816;44.624;2023-04-27T16:03:54;100790;;;21.1;37.3
49583;BME280;36329;48.816;44.624;2023-04-27T16:06:57;100783;;;21;38.5
49583;BME280;36329;48.816;44.624;2023-04-27T16:09:59;100788;;;21;37.6
49583;BME280;36329;48.816;44.624;2023-04-27T16:13:01;100794;;;20.9;37.9
49583;BME280;36329;48.816;44.624;2023-04-27T16:16:03;100795;;;20.8;38.3
49583;BME280;36329;48.816;44.624;2023-04-27T16:19:06;100791;;;20.7;38.9
49583;BME280;36329;48.816;44.624;2023-04-27T16:22:08;100797;;;20.8;39.1
49583;BME280;36329;48.816;44.624;2023-04-27T16:25:10;100802;;;20.8;39.5
49583;BME280;36329;48.816;44.624;2023-04-27T16:28:12;100808;;;20.8;40.4
49583;BME280;36329;48.816;44.624;2023-04-27T16:31:14;100813;;;20.8;41.1
49583;BME280;36329;48.816;44.624;2023-04-27T16:34:16;100814;;;20.6;40.8
49583;BME280;36329;48.816;44.624;2023-04-27T16:37:18;100821;;;20.6;41
49583;BME280;36329;48.816;44.624;2023-04-27T16:40:20;100822;;;20.6;41.3
49583;BME280;36329;48.816;44.624;2023-04-27T16:43:23;100823;;;20.6;41.8
49583;BME280;36329;48.816;44.624;2023-04-27T16:46:25;100830;;;20.5;43.2
49583;BME280;36329;48.816;44.624;2023-04-27T16:49:27;100832;;;20.5;43
49583;BME280;36329;48.816;44.624;2023-04-27T16:52:29;100839;;;20.5;44.4